Time;durP1;ratioP1;P1;durP2;ratioP2;P2;SDS_P1;SDS_P2;PMS_P1;PMS_P2;Temp;Humidity;BMP_temperature;BMP_pressure;BME280_temperature;BME280_humidity;BME280_pressure;Samples;Min_cycle;Max_cycle;Signal;HPM_P1;HPM_P2
2022/09/24 05:28:27;;;;;;;;;;;;;;;10.48;100.00;99145.22;5757898;22;20032;-88
2022/09/24 05:30:55;;;;;;;;;;;;;;;10.82;100.00;99143.44;5023821;28;19925;-86
2022/09/24 05:33:21;;;;;;;;;;;;;;;11.35;100.00;99144.06;5024255;28;20287;-85
2022/09/24 05:35:51;;;;;;;;;;;;;;;11.41;100.00;99149.88;5032416;28;19921;-89
2022/09/24 05:38:17;;;;;;;;;;;;;;;10.96;100.00;99156.78;5030460;28;19929;-83
2022/09/24 05:40:48;;;;;;;;;;;;;;;10.79;100.00;99162.16;5032733;28;20018;-83
2022/09/24 05:43:13;;;;;;;;;;;;;;;10.71;100.00;99171.34;5013164;28;20328;-85
2022/09/24 05:45:40;;;;;;;;;;;;;;;10.66;100.00;99168.09;5032338;28;19957;-89
2022/09/24 05:48:05;;;;;;;;;;;;;;;10.64;100.00;99175.28;5031057;28;19925;-83
2022/09/24 05:50:34;;;;;;;;;;;;;;;10.62;100.00;99173.63;5008328;28;19917;-83
2022/09/24 05:53:03;;;;;;;;;;;;;;;10.60;100.00;99176.34;5030584;28;19967;-84
2022/09/24 05:55:28;;;;;;;;;;;;;;;10.59;100.00;99169.34;5030968;28;20468;-83
2022/09/24 05:57:54;;;;;;;;;;;;;;;10.58;100.00;99175.59;5031012;28;19972;-83
2022/09/24 06:00:19;;;;;;;;;;;;;;;10.55;100.00;99178.41;5032130;28;19928;-84
2022/09/24 06:02:44;;;;;;;;;;;;;;;10.58;100.00;99180.88;5032327;28;20402;-83
2022/09/24 06:05:10;;;;;;;;;;;;;;;10.59;100.00;99173.78;5032460;28;20372;-83
2022/09/24 06:07:35;;;;;;;;;;;;;;;10.60;100.00;99183.47;5031361;28;20428;-83
2022/09/24 06:10:00;;;;;;;;;;;;;;;10.59;100.00;99184.38;5032344;28;19928;-83
2022/09/24 06:12:26;;;;;;;;;;;;;;;10.60;100.00;99181.66;5031531;28;19921;-85
2022/09/24 06:14:52;;;;;;;;;;;;;;;10.59;100.00;99174.63;5032235;28;19932;-83
2022/09/24 06:17:18;;;;;;;;;;;;;;;10.56;100.00;99174.78;5031498;28;19918;-86
2022/09/24 06:19:43;;;;;;;;;;;;;;;10.59;100.00;99177.28;5014375;28;20379;-83
2022/09/24 06:22:08;;;;;;;;;;;;;;;10.58;100.00;99183.53;5032310;28;19917;-84
2022/09/24 06:24:34;;;;;;;;;;;;;;;10.58;100.00;99180.88;5032066;28;19924;-83
2022/09/24 06:26:59;;;;;;;;;;;;;;;10.59;100.00;99187.03;5031602;28;19921;-85
2022/09/24 06:29:24;;;;;;;;;;;;;;;10.59;100.00;99182.56;5029863;28;19929;-83
2022/09/24 06:31:52;;;;;;;;;;;;;;;10.61;100.00;99180.72;5032019;28;19921;-85
2022/09/24 06:34:17;;;;;;;;;;;;;;;10.60;100.00;99178.16;5030284;28;20318;-86
2022/09/24 06:36:42;;;;;;;;;;;;;;;10.61;100.00;99175.44;5029143;28;20008;-85
2022/09/24 06:39:08;;;;;;;;;;;;;;;10.61;100.00;99187.81;5031269;28;20260;-85
2022/09/24 06:41:33;;;;;;;;;;;;;;;10.59;100.00;99182.56;5031670;28;20339;-86
2022/09/24 06:43:58;;;;;;;;;;;;;;;10.62;100.00;99194.81;5003899;28;19960;-85
2022/09/24 06:46:24;;;;;;;;;;;;;;;10.60;100.00;99194.06;5031863;28;19924;-84
2022/09/24 06:48:50;;;;;;;;;;;;;;;10.62;100.00;99193.00;5030994;28;20339;-86
2022/09/24 06:51:15;;;;;;;;;;;;;;;10.60;100.00;99180.81;5014189;28;19932;-84
2022/09/24 06:53:40;;;;;;;;;;;;;;;10.59;100.00;99181.72;5013903;28;20430;-85
2022/09/24 06:56:06;;;;;;;;;;;;;;;10.60;100.00;99179.00;5013936;28;20396;-85
2022/09/24 06:58:32;;;;;;;;;;;;;;;10.63;100.00;99183.31;5003747;28;20369;-84
2022/09/24 07:01:00;;;;;;;;;;;;;;;10.64;100.00;99179.69;5031729;28;19971;-86
2022/09/24 07:03:26;;;;;;;;;;;;;;;10.64;100.00;99177.91;5008735;28;19917;-85
2022/09/24 07:05:51;;;;;;;;;;;;;;;10.65;100.00;99184.06;5005325;28;19999;-85
2022/09/24 07:08:16;;;;;;;;;;;;;;;10.66;100.00;99183.97;5012354;28;20055;-85
2022/09/24 07:10:43;;;;;;;;;;;;;;;10.65;100.00;99182.25;5024956;28;19921;-86
2022/09/24 07:13:08;;;;;;;;;;;;;;;10.64;100.00;99185.88;4998561;28;19924;-83
2022/09/24 07:15:33;;;;;;;;;;;;;;;10.66;100.00;99183.13;5011666;28;20316;-86
2022/09/24 07:17:59;;;;;;;;;;;;;;;10.66;100.00;99183.13;5010923;28;21751;-85
2022/09/24 07:20:27;;;;;;;;;;;;;;;10.66;100.00;99183.97;5011907;28;20008;-87
2022/09/24 07:22:52;;;;;;;;;;;;;;;10.67;100.00;99192.78;5013388;28;19921;-86
2022/09/24 07:25:17;;;;;;;;;;;;;;;10.69;100.00;99190.91;5010626;28;20295;-85
2022/09/24 07:27:42;;;;;;;;;;;;;;;10.68;100.00;99192.69;5007735;28;20371;-83
2022/09/24 07:30:08;;;;;;;;;;;;;;;10.67;100.00;99193.66;5008365;28;20376;-82
2022/09/24 07:32:34;;;;;;;;;;;;;;;10.68;100.00;99186.56;5004260;28;20032;-83
2022/09/24 07:34:59;;;;;;;;;;;;;;;10.69;100.00;99193.53;5031396;28;20043;-87
2022/09/24 07:37:24;;;;;;;;;;;;;;;10.70;100.00;99195.28;5013684;28;20475;-84
2022/09/24 07:39:49;;;;;;;;;;;;;;;10.68;100.00;99195.34;5031314;28;20447;-83
2022/09/24 07:42:15;;;;;;;;;;;;;;;10.70;100.00;99196.13;5013984;28;20480;-84
2022/09/24 07:44:40;;;;;;;;;;;;;;;10.72;100.00;99188.09;5009743;28;19928;-86
2022/09/24 07:47:05;;;;;;;;;;;;;;;10.72;100.00;99191.63;5033623;28;19929;-85
2022/09/24 07:49:31;;;;;;;;;;;;;;;10.75;100.00;99195.03;5017118;28;19921;-82
2022/09/24 07:51:57;;;;;;;;;;;;;;;10.76;100.00;99194.09;5010429;28;19929;-86
2022/09/24 07:54:22;;;;;;;;;;;;;;;10.76;100.00;99188.81;5010079;28;20040;-84
2022/09/24 07:56:47;;;;;;;;;;;;;;;10.74;100.00;99196.84;5034163;28;19947;-82
2022/09/24 07:59:13;;;;;;;;;;;;;;;10.76;100.00;99199.41;5033260;28;19975;-87
2022/09/24 08:01:39;;;;;;;;;;;;;;;10.78;100.00;99197.53;5030959;28;19925;-86
2022/09/24 08:04:04;;;;;;;;;;;;;;;10.79;100.00;99207.19;5016051;28;19921;-86
2022/09/24 08:06:33;;;;;;;;;;;;;;;10.79;100.00;99199.25;5016628;28;19928;-83
2022/09/24 08:08:58;;;;;;;;;;;;;;;10.80;100.00;99195.63;5015475;28;19951;-87
2022/09/24 08:11:24;;;;;;;;;;;;;;;10.80;100.00;99206.25;5034370;28;19917;-87
2022/09/24 08:13:49;;;;;;;;;;;;;;;10.81;100.00;99213.25;5014804;28;19925;-85
2022/09/24 08:16:15;;;;;;;;;;;;;;;10.80;100.00;99216.84;5016560;28;19979;-87
2022/09/24 08:18:42;;;;;;;;;;;;;;;10.80;100.00;99211.53;5016681;28;19924;-83
2022/09/24 08:21:10;;;;;;;;;;;;;;;10.80;100.00;99215.06;5007892;28;19917;-86
2022/09/24 08:23:36;;;;;;;;;;;;;;;10.82;100.00;99217.63;5033320;28;20447;-83
2022/09/24 08:26:01;;;;;;;;;;;;;;;10.80;100.00;99217.72;5024840;28;20032;-86
2022/09/24 08:28:27;;;;;;;;;;;;;;;10.80;100.00;99208.88;5012396;28;19917;-83
2022/09/24 08:30:56;;;;;;;;;;;;;;;10.81;100.00;99207.97;5015845;28;19932;-85
2022/09/24 08:33:22;;;;;;;;;;;;;;;10.82;100.00;99201.72;5033613;28;20010;-84
2022/09/24 08:35:47;;;;;;;;;;;;;;;10.82;100.00;99205.22;5033435;28;19971;-85
2022/09/24 08:38:12;;;;;;;;;;;;;;;10.85;100.00;99214.78;5013804;28;20393;-87
2022/09/24 08:40:46;;;;;;;;;;;;;;;10.82;100.00;99205.22;5015794;28;20386;-83
2022/09/24 08:43:33;;;;;;;;;;;;;;;10.84;100.00;99213.09;5006528;28;19921;-83
2022/09/24 08:48:50;;;;;;;;;;;;;;;10.87;100.00;99208.47;5034247;28;19985;-84
2022/09/24 08:51:16;;;;;;;;;;;;;;;10.85;100.00;99205.06;5033708;28;19936;-86
2022/09/24 08:53:49;;;;;;;;;;;;;;;10.89;100.00;99209.25;5023312;28;19922;-82
2022/09/24 08:56:17;;;;;;;;;;;;;;;10.89;100.00;99208.41;5003467;28;20364;-83
2022/09/24 08:58:43;;;;;;;;;;;;;;;10.89;100.00;99213.69;5022960;28;19921;-86
2022/09/24 09:01:15;;;;;;;;;;;;;;;10.91;100.00;99217.13;5033727;28;20261;-83
2022/09/24 09:03:47;;;;;;;;;;;;;;;10.93;100.00;99212.63;5003106;28;19921;-83
2022/09/24 09:06:15;;;;;;;;;;;;;;;10.94;100.00;99219.59;5007202;28;19917;-82
2022/09/24 09:09:10;;;;;;;;;;;;;;;10.93;100.00;99211.75;5015881;28;19924;-83
2022/09/24 09:11:36;;;;;;;;;;;;;;;10.94;100.00;99209.00;4929533;28;19922;-82
2022/09/24 09:14:22;;;;;;;;;;;;;;;10.96;100.00;99219.53;5032101;28;19917;-82
2022/09/24 09:16:47;;;;;;;;;;;;;;;10.93;100.00;99214.38;5005903;28;19917;-85
2022/09/24 09:19:14;;;;;;;;;;;;;;;10.94;100.00;99226.72;5033269;28;19928;-84
2022/09/24 09:21:43;;;;;;;;;;;;;;;10.92;100.00;99221.50;5004103;28;19924;-86
2022/09/24 09:24:16;;;;;;;;;;;;;;;10.93;100.00;99225.00;5007223;28;19918;-83
2022/09/24 09:26:45;;;;;;;;;;;;;;;10.94;100.00;99227.56;5006970;28;19917;-84
2022/09/24 09:29:10;;;;;;;;;;;;;;;10.95;100.00;99236.38;5013831;28;20379;-84
2022/09/24 09:31:35;;;;;;;;;;;;;;;10.96;100.00;99231.00;5015297;28;19937;-83
2022/09/24 09:34:13;;;;;;;;;;;;;;;10.96;100.00;99227.47;5015240;28;19917;-83
2022/09/24 09:36:38;;;;;;;;;;;;;;;10.98;100.00;99228.28;5032876;28;19923;-85
2022/09/24 09:39:19;;;;;;;;;;;;;;;10.99;100.00;99233.50;5015144;28;19921;-84
2022/09/24 09:41:50;;;;;;;;;;;;;;;10.98;100.00;99237.06;5032979;28;19920;-83
2022/09/24 09:44:19;;;;;;;;;;;;;;;10.98;100.00;99237.06;5013864;28;19952;-85
2022/09/24 09:47:05;;;;;;;;;;;;;;;10.98;100.00;99244.19;5032183;28;20012;-85
2022/09/24 09:49:33;;;;;;;;;;;;;;;10.99;100.00;99237.91;5032412;28;19917;-84
2022/09/24 09:52:01;;;;;;;;;;;;;;;10.99;100.00;99245.88;5023097;28;19921;-83
2022/09/24 09:54:38;;;;;;;;;;;;;;;11.00;100.00;99245.78;5014934;28;20511;-85
2022/09/24 09:57:05;;;;;;;;;;;;;;;11.00;100.00;99240.50;5014750;28;19917;-83
2022/09/24 09:59:33;;;;;;;;;;;;;;;11.01;100.00;99244.00;5013542;28;19917;-84
2022/09/24 10:01:58;;;;;;;;;;;;;;;11.01;100.00;99239.56;5006732;28;19924;-84
2022/09/24 10:04:36;;;;;;;;;;;;;;;11.05;100.00;99235.78;5032444;28;19917;-83
2022/09/24 10:07:12;;;;;;;;;;;;;;;11.05;100.00;99235.78;5014595;28;20336;-82
2022/09/24 10:09:38;;;;;;;;;;;;;;;11.06;100.00;99231.38;5006203;28;19921;-84
2022/09/24 10:12:20;;;;;;;;;;;;;;;11.06;100.00;99234.88;5014624;28;19918;-85
2022/09/24 10:14:55;;;;;;;;;;;;;;;11.04;100.00;99231.44;5013903;28;19917;-85
2022/09/24 10:17:20;;;;;;;;;;;;;;;11.06;100.00;99240.16;5032130;28;19928;-83
2022/09/24 10:19:46;;;;;;;;;;;;;;;11.06;100.00;99232.22;5025947;28;19921;-86
2022/09/24 10:22:20;;;;;;;;;;;;;;;11.07;100.00;99230.41;5032118;28;19995;-85
2022/09/24 10:24:45;;;;;;;;;;;;;;;11.05;100.00;99219.88;5014527;28;20296;-85
2022/09/24 10:27:21;;;;;;;;;;;;;;;11.06;100.00;99226.91;5013619;28;19921;-84
2022/09/24 10:32:30;;;;;;;;;;;;;;;11.08;100.00;99221.53;5032461;28;19971;-84
2022/09/24 10:34:57;;;;;;;;;;;;;;;11.10;100.00;99217.00;5004985;28;19922;-82
2022/09/24 10:37:22;;;;;;;;;;;;;;;11.11;100.00;99217.88;5014313;28;19921;-86
2022/09/24 10:39:58;;;;;;;;;;;;;;;11.10;100.00;99224.94;5032069;28;19917;-87
2022/09/24 10:42:24;;;;;;;;;;;;;;;11.09;100.00;99221.44;5004825;28;20011;-88
2022/09/24 10:44:50;;;;;;;;;;;;;;;11.11;100.00;99221.38;5011126;28;19971;-86
2022/09/24 10:47:27;;;;;;;;;;;;;;;11.12;100.00;99222.22;5031581;28;19921;-87
2022/09/24 10:49:55;;;;;;;;;;;;;;;11.12;100.00;99216.91;5013941;28;20469;-87
2022/09/24 10:52:35;;;;;;;;;;;;;;;11.11;100.00;99215.22;5031782;28;19953;-84
2022/09/24 10:55:09;;;;;;;;;;;;;;;11.12;100.00;99211.59;5005179;28;19921;-87
2022/09/24 10:57:54;;;;;;;;;;;;;;;11.14;100.00;99213.25;5030460;28;20028;-85
2022/09/24 11:00:21;;;;;;;;;;;;;;;11.13;100.00;99208.88;5005439;28;20372;-83
2022/09/24 11:03:01;;;;;;;;;;;;;;;11.14;100.00;99209.75;5006491;28;19921;-87
2022/09/24 11:05:54;;;;;;;;;;;;;;;11.15;100.00;99212.28;5014068;28;19925;-84
2022/09/24 11:08:48;;;;;;;;;;;;;;;11.16;100.00;99213.16;5009812;28;19940;-84
2022/09/24 11:11:22;;;;;;;;;;;;;;;11.18;100.00;99221.88;5031529;28;19917;-85
2022/09/24 11:13:54;;;;;;;;;;;;;;;11.18;100.00;99214.78;5004382;28;20008;-85
2022/09/24 11:16:39;;;;;;;;;;;;;;;11.18;100.00;99216.59;5014696;28;19918;-85
2022/09/24 11:19:27;;;;;;;;;;;;;;;11.18;100.00;99221.88;5017815;28;20383;-86
2022/09/24 11:22:04;;;;;;;;;;;;;;;11.20;100.00;99210.28;4998089;28;19921;-94
2022/09/24 11:24:30;;;;;;;;;;;;;;;11.19;100.00;99211.19;5017875;28;20300;-85
2022/09/24 11:27:04;;;;;;;;;;;;;;;11.21;100.00;99206.66;5035387;28;19921;-83
2022/09/24 11:29:29;;;;;;;;;;;;;;;11.23;100.00;99214.53;5016193;28;20020;-83
2022/09/24 11:32:05;;;;;;;;;;;;;;;11.23;100.00;99209.22;5017684;28;20008;-84
2022/09/24 11:34:37;;;;;;;;;;;;;;;11.23;100.00;99212.75;5009235;28;20316;-85
2022/09/24 11:37:03;;;;;;;;;;;;;;;11.24;100.00;99205.66;5017010;28;19932;-86
2022/09/24 11:39:51;;;;;;;;;;;;;;;11.23;100.00;99210.09;5017218;28;19924;-86
2022/09/24 11:42:28;;;;;;;;;;;;;;;11.23;100.00;99201.28;5004303;28;20395;-83
2022/09/24 11:45:02;;;;;;;;;;;;;;;11.24;100.00;99197.69;5016904;28;19917;-84
2022/09/24 11:47:30;;;;;;;;;;;;;;;11.24;100.00;99200.34;5009034;28;19947;-89
2022/09/24 11:49:58;;;;;;;;;;;;;;;11.25;100.00;99196.75;5035056;28;19968;-86
2022/09/24 11:52:30;;;;;;;;;;;;;;;11.26;100.00;99198.44;5016666;28;20376;-84
2022/09/24 11:55:00;;;;;;;;;;;;;;;11.25;100.00;99191.47;5034367;28;19951;-85
2022/09/24 11:57:28;;;;;;;;;;;;;;;11.25;100.00;99187.00;5015764;28;19921;-85
2022/09/24 11:59:59;;;;;;;;;;;;;;;11.27;100.00;99189.56;5008373;28;20388;-84
2022/09/24 12:02:33;;;;;;;;;;;;;;;11.27;100.00;99184.25;5027734;28;19921;-83
2022/09/24 12:05:08;;;;;;;;;;;;;;;11.27;100.00;99176.31;5008699;28;19968;-86
2022/09/24 12:07:52;;;;;;;;;;;;;;;11.29;100.00;99176.22;5016210;28;20285;-83
2022/09/24 12:10:23;;;;;;;;;;;;;;;11.27;100.00;99178.97;5016794;28;20410;-86
2022/09/24 12:12:50;;;;;;;;;;;;;;;11.33;100.00;99168.00;5007136;28;19928;-87
2022/09/24 12:15:22;;;;;;;;;;;;;;;11.32;100.00;99168.09;5027450;28;19925;-86
2022/09/24 12:17:51;;;;;;;;;;;;;;;11.30;100.00;99172.63;5008224;28;20286;-85
2022/09/24 12:20:22;;;;;;;;;;;;;;;11.30;100.00;99176.13;5003162;28;20351;-86
2022/09/24 12:22:49;;;;;;;;;;;;;;;11.33;100.00;99168.00;5028374;28;19986;-86
2022/09/24 12:25:14;;;;;;;;;;;;;;;11.35;100.00;99168.78;5016530;28;19961;-87
2022/09/24 12:27:41;;;;;;;;;;;;;;;11.33;100.00;99168.00;5031586;28;19975;-83
2022/09/24 12:33:12;;;;;;;;;;;;;;;11.34;100.00;99167.06;5033536;28;19929;-87
2022/09/24 12:35:55;;;;;;;;;;;;;;;11.32;100.00;99160.97;5015736;28;20404;-87
2022/09/24 12:38:29;;;;;;;;;;;;;;;11.33;100.00;99164.47;5033838;28;19940;-87
2022/09/24 12:41:10;;;;;;;;;;;;;;;11.32;100.00;99166.28;5016219;28;20281;-83
2022/09/24 12:43:40;;;;;;;;;;;;;;;11.33;100.00;99161.81;5015006;28;19975;-86
2022/09/24 12:46:08;;;;;;;;;;;;;;;11.32;100.00;99165.44;5010485;28;19943;-87
2022/09/24 12:48:36;;;;;;;;;;;;;;;11.33;100.00;99156.53;5015999;28;19917;-83
2022/09/24 12:51:03;;;;;;;;;;;;;;;11.35;100.00;99150.22;5033989;28;19970;-86
2022/09/24 12:53:33;;;;;;;;;;;;;;;11.34;100.00;99152.94;5033721;28;19928;-83
2022/09/24 12:55:59;;;;;;;;;;;;;;;11.34;100.00;99148.47;5015997;28;19917;-84
2022/09/24 12:58:38;;;;;;;;;;;;;;;11.38;100.00;99149.19;5006298;28;19924;-83
2022/09/24 13:01:11;;;;;;;;;;;;;;;11.41;100.00;99152.53;5033948;28;20078;-87
2022/09/24 13:03:37;;;;;;;;;;;;;;;11.39;100.00;99157.06;5007631;28;19921;-84
2022/09/24 13:06:17;;;;;;;;;;;;;;;11.37;100.00;99148.31;5033889;28;19921;-85
2022/09/24 13:08:42;;;;;;;;;;;;;;;11.40;100.00;99145.50;5007728;28;19917;-84
2022/09/24 13:11:24;;;;;;;;;;;;;;;11.39;100.00;99154.41;5015795;28;19917;-86
2022/09/24 13:14:01;;;;;;;;;;;;;;;11.39;100.00;99149.09;5014515;28;20283;-84
2022/09/24 13:16:27;;;;;;;;;;;;;;;11.39;100.00;99146.44;5033377;28;19925;-82
2022/09/24 13:18:53;;;;;;;;;;;;;;;11.39;100.00;99148.22;5033415;28;19963;-88
2022/09/24 13:21:24;;;;;;;;;;;;;;;11.41;100.00;99146.38;5014981;28;19924;-86
2022/09/24 13:23:50;;;;;;;;;;;;;;;11.43;100.00;99147.97;5032453;28;19983;-85
2022/09/24 13:26:15;;;;;;;;;;;;;;;11.43;100.00;99149.78;5033145;28;20380;-86
2022/09/24 13:28:45;;;;;;;;;;;;;;;11.43;100.00;99145.31;5014198;28;20338;-84
2022/09/24 13:31:17;;;;;;;;;;;;;;;11.45;100.00;99146.09;5014577;28;20004;-83
2022/09/24 13:33:44;;;;;;;;;;;;;;;11.46;100.00;99152.25;5026980;28;19921;-83
2022/09/24 13:36:12;;;;;;;;;;;;;;;11.45;100.00;99151.41;5032991;28;19979;-87
2022/09/24 13:39:00;;;;;;;;;;;;;;;11.49;100.00;99151.22;5006723;28;19921;-88
2022/09/24 13:41:26;;;;;;;;;;;;;;;11.50;100.00;99152.94;5032914;28;19960;-83
2022/09/24 13:44:03;;;;;;;;;;;;;;;11.53;100.00;99150.09;5031688;28;19968;-89
2022/09/24 13:46:30;;;;;;;;;;;;;;;11.51;100.00;99152.84;5032615;28;19913;-82
2022/09/24 13:48:59;;;;;;;;;;;;;;;11.55;100.00;99158.81;5015141;28;19921;-89
2022/09/24 13:51:27;;;;;;;;;;;;;;;11.52;100.00;99156.34;5014530;28;19921;-89
2022/09/24 13:53:52;;;;;;;;;;;;;;;11.52;100.00;99156.34;5007375;28;19928;-89
2022/09/24 13:56:18;;;;;;;;;;;;;;;11.53;100.00;99163.38;5014835;28;19996;-87
2022/09/24 13:58:44;;;;;;;;;;;;;;;11.54;100.00;99162.44;5031468;28;20004;-87
2022/09/24 14:01:15;;;;;;;;;;;;;;;11.53;100.00;99163.38;5015325;28;19963;-89
2022/09/24 14:03:41;;;;;;;;;;;;;;;11.55;100.00;99161.47;5014783;28;19921;-89
2022/09/24 14:06:11;;;;;;;;;;;;;;;11.56;100.00;99165.84;5014750;28;20560;-88
2022/09/24 14:08:39;;;;;;;;;;;;;;;11.55;100.00;99162.34;5006442;28;19917;-88
2022/09/24 14:11:08;;;;;;;;;;;;;;;11.56;100.00;99164.03;5014169;28;20051;-88
2022/09/24 14:13:37;;;;;;;;;;;;;;;11.53;100.00;99164.22;5004836;28;19951;-89
2022/09/24 14:16:09;;;;;;;;;;;;;;;11.54;100.00;99168.59;5032260;28;20015;-88
2022/09/24 14:18:36;;;;;;;;;;;;;;;11.55;100.00;99158.81;5005694;28;20209;-88
2022/09/24 14:21:03;;;;;;;;;;;;;;;11.54;100.00;99159.78;5026224;28;19947;-88
2022/09/24 14:23:30;;;;;;;;;;;;;;;11.53;100.00;99164.22;5014390;28;19921;-88
2022/09/24 14:25:56;;;;;;;;;;;;;;;11.55;100.00;99158.81;5000831;28;20289;-89
2022/09/24 14:28:22;;;;;;;;;;;;;;;11.56;100.00;99161.41;5004751;28;19940;-89
2022/09/24 14:30:50;;;;;;;;;;;;;;;11.54;100.00;99159.78;5031921;28;19980;-90
2022/09/24 14:33:16;;;;;;;;;;;;;;;11.57;100.00;99159.63;5013801;28;19928;-85
2022/09/24 14:35:47;;;;;;;;;;;;;;;11.55;100.00;99161.47;5006048;28;19917;-84
2022/09/24 14:38:12;;;;;;;;;;;;;;;11.57;100.00;99160.47;5008680;28;19921;-89
2022/09/24 14:40:39;;;;;;;;;;;;;;;11.56;100.00;99165.84;5031928;28;19963;-89
2022/09/24 14:43:05;;;;;;;;;;;;;;;11.54;100.00;99159.78;5029795;28;20407;-89
2022/09/24 14:45:36;;;;;;;;;;;;;;;11.55;100.00;99157.06;5014206;28;20032;-90
2022/09/24 14:48:20;;;;;;;;;;;;;;;11.55;100.00;99157.06;5006875;28;19917;-88
2022/09/24 14:50:46;;;;;;;;;;;;;;;11.55;100.00;99161.47;5013620;28;19924;-90
2022/09/24 14:53:23;;;;;;;;;;;;;;;11.57;100.00;99156.97;5014273;28;19917;-89
2022/09/24 14:55:48;;;;;;;;;;;;;;;11.57;100.00;99156.97;5013582;28;20361;-83
2022/09/24 14:58:33;;;;;;;;;;;;;;;11.57;100.00;99159.63;5025637;28;19917;-89
2022/09/24 15:01:00;;;;;;;;;;;;;;;11.56;100.00;99158.75;5031809;28;20331;-85
2022/09/24 15:03:31;;;;;;;;;;;;;;;11.56;100.00;99158.75;5005751;28;19932;-86
2022/09/24 15:06:03;;;;;;;;;;;;;;;11.55;100.00;99162.34;5030916;28;20020;-82
2022/09/24 15:08:29;;;;;;;;;;;;;;;11.56;100.00;99155.25;5000557;28;19928;-84
2022/09/24 15:10:55;;;;;;;;;;;;;;;11.56;100.00;99153.44;5008120;28;20299;-85
2022/09/24 15:13:23;;;;;;;;;;;;;;;11.56;100.00;99155.25;5012777;28;20060;-83
2022/09/24 15:15:49;;;;;;;;;;;;;;;11.56;100.00;99150.78;5030871;28;19917;-84
2022/09/24 15:18:17;;;;;;;;;;;;;;;11.58;100.00;99158.66;5013833;28;20368;-84
2022/09/24 15:20:43;;;;;;;;;;;;;;;11.59;100.00;99155.06;5008568;28;20308;-83
2022/09/24 15:23:08;;;;;;;;;;;;;;;11.61;100.00;99145.22;5000688;28;19956;-82
2022/09/24 15:25:34;;;;;;;;;;;;;;;12.03;100.00;99150.81;5013692;28;19990;-85
2022/09/24 15:27:59;;;;;;;;;;;;;;;11.84;100.00;99148.34;5012448;28;19917;-86
2022/09/24 15:30:24;;;;;;;;;;;;;;;11.71;100.00;99145.53;5012915;28;20270;-82
2022/09/24 15:32:51;;;;;;;;;;;;;;;11.65;100.00;99144.09;5006348;28;19925;-85
2022/09/24 15:35:16;;;;;;;;;;;;;;;11.63;100.00;99144.19;5005232;28;19925;-90
2022/09/24 15:37:42;;;;;;;;;;;;;;;12.01;100.00;99134.97;5029653;28;19940;-85
2022/09/24 15:40:14;;;;;;;;;;;;;;;12.20;100.00;99141.84;5011202;28;19947;-81
2022/09/24 15:42:39;;;;;;;;;;;;;;;12.18;100.00;99134.81;5005721;28;19922;-86
2022/09/24 15:45:15;;;;;;;;;;;;;;;11.93;100.00;99139.88;5012544;28;20283;-88
2022/09/24 15:47:40;;;;;;;;;;;;;;;11.83;100.00;99136.88;5012514;28;20055;-86
2022/09/24 15:50:05;;;;;;;;;;;;;;;11.78;100.00;99133.63;5012313;28;20023;-81
2022/09/24 15:52:31;;;;;;;;;;;;;;;11.75;100.00;99142.63;5009617;28;20064;-89
2022/09/24 15:54:58;;;;;;;;;;;;;;;11.73;100.00;99139.22;5010041;28;19921;-82
2022/09/24 15:57:27;;;;;;;;;;;;;;;11.73;100.00;99138.38;5006631;28;19928;-90
2022/09/24 15:59:52;;;;;;;;;;;;;;;11.72;100.00;99137.50;5029647;28;19968;-83
2022/09/24 16:02:25;;;;;;;;;;;;;;;11.72;100.00;99137.50;5007077;28;20014;-85
2022/09/24 16:04:51;;;;;;;;;;;;;;;11.71;100.00;99140.22;5008637;28;19926;-85
2022/09/24 16:07:17;;;;;;;;;;;;;;;11.69;100.00;99134.16;5018868;28;20392;-82
2022/09/24 16:09:42;;;;;;;;;;;;;;;11.70;100.00;99131.44;5014921;28;20292;-92
2022/09/24 16:12:08;;;;;;;;;;;;;;;11.70;100.00;99136.72;5016584;28;19982;-91
2022/09/24 16:14:34;;;;;;;;;;;;;;;12.26;100.00;99134.34;5013980;28;19925;-82
2022/09/24 16:16:59;;;;;;;;;;;;;;;13.96;100.00;99129.81;5016127;28;19928;-83
2022/09/24 16:19:24;;;;;;;;;;;;;;;14.42;100.00;99122.31;5015810;28;19975;-81
2022/09/24 16:21:50;;;;;;;;;;;;;;;14.58;100.00;99122.94;5033193;28;19969;-82
2022/09/24 16:24:16;;;;;;;;;;;;;;;14.60;100.00;99131.72;5030699;28;19929;-81
2022/09/24 16:26:41;;;;;;;;;;;;;;;14.69;100.00;99132.88;5008650;28;19924;-80
2022/09/24 16:29:09;;;;;;;;;;;;;;;14.50;100.00;99135.94;5011975;28;19921;-81
2022/09/24 16:31:34;;;;;;;;;;;;;;;14.47;100.00;99136.16;5011664;28;20031;-82
2022/09/24 16:33:59;;;;;;;;;;;;;;;14.33;100.00;99137.97;5010086;28;20357;-82
2022/09/24 16:36:24;;;;;;;;;;;;;;;14.22;100.00;99142.34;5008238;28;19949;-81
2022/09/24 16:38:50;;;;;;;;;;;;;;;14.11;100.00;99143.06;5030898;28;20015;-82
2022/09/24 16:41:15;;;;;;;;;;;;;;;14.00;100.00;99149.09;5031747;28;19956;-82
2022/09/24 16:43:40;;;;;;;;;;;;;;;13.94;100.00;99155.69;5032514;28;19920;-81
2022/09/24 16:46:07;;;;;;;;;;;;;;;13.96;100.00;99153.78;5012640;28;19929;-82
2022/09/24 16:48:33;;;;;;;;;;;;;;;13.99;100.00;99155.38;5031594;28;20385;-82
2022/09/24 16:51:06;;;;;;;;;;;;;;;14.07;100.00;99157.53;5032119;28;19925;-81
2022/09/24 16:53:32;;;;;;;;;;;;;;;14.19;100.00;99153.22;5015782;28;19950;-81
2022/09/24 16:56:09;;;;;;;;;;;;;;;14.33;100.00;99150.47;5031810;28;19971;-82
2022/09/24 16:58:35;;;;;;;;;;;;;;;14.29;100.00;99154.28;5032465;28;20008;-82
2022/09/24 17:01:07;;;;;;;;;;;;;;;14.30;100.00;99154.16;5014820;28;20008;-82
2022/09/24 17:03:32;;;;;;;;;;;;;;;14.39;100.00;99159.81;5033485;28;19917;-82
2022/09/24 17:05:58;;;;;;;;;;;;;;;14.19;100.00;99154.06;5009119;28;19932;-81
2022/09/24 17:10:11;;;;;;;;;;;;;;;14.13;100.00;99165.13;5031585;28;19964;-82
2022/09/24 17:11:08;;;;;;;;;;;;;;;14.13;100.00;99160.63;5028043;28;19933;-81
2022/09/24 17:13:33;;;;;;;;;;;;;;;14.07;100.00;99163.75;5012975;28;19945;-81
2022/09/24 17:15:59;;;;;;;;;;;;;;;14.03;100.00;99164.03;5031244;28;19967;-80
2022/09/24 17:18:26;;;;;;;;;;;;;;;13.94;100.00;99155.69;5030771;28;19952;-80
2022/09/24 17:20:58;;;;;;;;;;;;;;;13.90;100.00;99162.19;5031983;28;20027;-88
2022/09/24 17:23:23;;;;;;;;;;;;;;;11.96;100.00;99171.56;5032810;28;19922;-86
2022/09/24 17:25:48;;;;;;;;;;;;;;;11.00;100.00;99171.56;5015140;28;20425;-88
2022/09/24 17:28:14;;;;;;;;;;;;;;;10.42;100.00;99174.66;5012610;28;20004;-86
2022/09/24 17:30:39;;;;;;;;;;;;;;;10.03;100.00;99176.59;5032696;28;20325;-88
2022/09/24 17:33:04;;;;;;;;;;;;;;;9.68;100.00;99175.69;5030320;28;19929;-85
2022/09/24 17:35:29;;;;;;;;;;;;;;;9.49;100.00;99170.44;5031705;28;19929;-87
2022/09/24 17:37:55;;;;;;;;;;;;;;;9.19;100.00;99177.13;5032930;28;19949;-86
2022/09/24 17:40:20;;;;;;;;;;;;;;;9.09;100.00;99183.75;5031026;28;19935;-87
2022/09/24 17:42:50;;;;;;;;;;;;;;;8.97;100.00;99182.53;5028897;28;19925;-88
2022/09/24 17:45:16;;;;;;;;;;;;;;;8.80;100.00;99179.81;5023872;28;19922;-86
2022/09/24 17:47:56;;;;;;;;;;;;;;;8.64;100.00;99190.19;5029911;28;19924;-87
2022/09/24 17:50:21;;;;;;;;;;;;;;;8.53;100.00;99188.88;5028678;28;19972;-88
2022/09/24 17:52:47;;;;;;;;;;;;;;;8.46;100.00;99190.09;5012049;28;19921;-87
2022/09/24 17:55:12;;;;;;;;;;;;;;;8.28;100.00;99191.72;5012626;28;20288;-87
2022/09/24 17:57:37;;;;;;;;;;;;;;;8.19;100.00;99198.22;5030762;28;19921;-87
2022/09/24 18:00:04;;;;;;;;;;;;;;;8.03;100.00;99196.31;5014948;28;19917;-87
2022/09/24 18:02:29;;;;;;;;;;;;;;;8.09;100.00;99196.91;5014135;28;19921;-89
2022/09/24 18:04:55;;;;;;;;;;;;;;;8.03;100.00;99201.59;5008024;28;19931;-87
2022/09/24 18:07:21;;;;;;;;;;;;;;;7.99;100.00;99195.56;5014916;28;19917;-91
2022/09/24 18:09:51;;;;;;;;;;;;;;;7.80;100.00;99204.25;5014405;28;19978;-89
2022/09/24 18:12:16;;;;;;;;;;;;;;;7.72;100.00;99211.63;5011304;28;20308;-86
2022/09/24 18:14:43;;;;;;;;;;;;;;;7.72;100.00;99205.47;5028668;28;19921;-87
2022/09/24 18:17:08;;;;;;;;;;;;;;;7.63;100.00;99210.19;5031059;28;20028;-86
2022/09/24 18:19:35;;;;;;;;;;;;;;;7.63;100.00;99204.06;5012214;28;20011;-88
2022/09/24 18:22:02;;;;;;;;;;;;;;;7.54;100.00;99199.16;5013656;28;19956;-83